Latest Weather Observations for Gunnedah Airport

IDN60801

Issued at 3:05 pm EST Friday 25 April 2014 (issued every 30 minutes, with the page automatically refreshed every 10 minutes)

About weather observations | Map of weather stations | Latest weather observations for NSW | Other Formats
Station Details ID: 055202 Name: GUNNEDAH AIRPORT AWS Lat: -30.95 Lon: 150.25 Height: 262.57 m
Data from the previous 72 hours. | See also: Recent months at Gunnedah Airport
Date/Time
EST
Temp
°C
App
Temp
°C
Dew
Point
Rel
Hum
%
Delta-T
°C
Wind Press
QNH
hPa
Press
MSL
hPa
Rain
since 9 am
mm
Dir
 
Spd
km/h
Gust
km/h
Spd
kts
Gust
kts
25/03:00pm 26.0 23.3 8.9 34 9.4 ESE 13 17 7 9 1016.3 1015.6 0.0
25/02:30pm 23.8 22.7 12.1 48 6.7 SE 9 13 5 7 1016.5 - 0.0
25/02:00pm 23.7 23.3 12.4 49 6.5 ESE 6 9 3 5 1016.9 1016.2 0.0
25/01:30pm 24.7 23.2 10.6 41 7.9 SSE 9 15 5 8 1017.2 - 0.0
25/01:00pm 25.1 23.9 11.6 42 7.7 SE 9 13 5 7 1017.6 1016.9 0.0
25/12:30pm 23.8 22.5 12.4 48 6.6 SE 11 13 6 7 1018.1 - 0.0
25/12:00pm 23.4 22.1 12.4 50 6.3 SE 11 17 6 9 1018.6 1017.9 0.0
25/11:30am 24.2 23.3 13.7 52 6.2 SE 11 15 6 8 1019.1 - 0.0
25/11:00am 23.4 21.3 13.6 54 5.8 ESE 17 22 9 12 1019.5 1018.8 0.0
25/10:30am 22.3 19.8 13.6 58 5.1 ESE 19 24 10 13 1019.8 - 0.0
25/10:00am 21.3 19.1 12.2 56 5.2 ESE 15 24 8 13 1020.1 1019.4 0.0
25/09:30am 19.7 16.8 12.2 62 4.2 ESE 19 24 10 13 1020.2 - 0.0
25/09:00am 19.9 18.5 13.4 66 3.7 SE 13 15 7 8 1020.3 1019.6 2.8
25/08:30am 20.3 20.2 14.9 71 3.2 E 9 15 5 8 1020.2 - 2.8
25/08:00am 18.2 18.5 13.5 74 2.7 ENE 4 9 2 5 1020.0 1019.3 2.8
25/07:30am 14.8 15.6 12.7 87 1.2 CALM 0 0 0 0 1019.7 - 2.8
25/07:00am 14.5 15.3 12.4 87 1.2 CALM 0 0 0 0 1019.4 1018.7 2.8
25/06:30am 14.6 13.6 12.3 86 1.3 SSE 9 13 5 7 1019.2 - 2.8
25/06:00am 15.4 12.4 12.7 84 1.5 SSE 20 26 11 14 1018.7 1018.0 2.8
25/05:30am 15.3 12.7 12.1 81 1.8 SE 17 22 9 12 1018.0 - 2.8
25/05:00am 15.2 13.8 12.3 83 1.6 SE 11 15 6 8 1017.8 1017.1 2.8
25/04:30am 16.1 14.0 12.5 79 2.0 E 15 20 8 11 1017.4 - 2.6
25/04:00am 15.9 14.2 13.6 86 1.3 SE 15 20 8 11 1017.6 1016.9 2.6
25/03:30am 16.1 13.4 13.0 82 1.7 SSW 19 26 10 14 1018.5 - 1.8
25/03:00am 16.7 13.1 13.2 80 2.0 WSW 24 33 13 18 1018.5 1017.8 1.2
25/02:30am 17.4 11.7 13.1 76 2.4 WSW 35 46 19 25 1017.5 - 0.6
25/02:00am 18.7 14.4 12.0 65 3.7 WSW 26 39 14 21 1017.1 1016.4 0.0
25/01:55am 19.5 14.5 11.0 58 4.7 WSW 28 39 15 21 1017.0 - 0.0
25/01:30am 15.8 14.7 10.1 69 3.0 S 6 9 3 5 1016.4 - 0.0
25/01:00am 15.0 13.3 9.8 71 2.7 SSE 9 15 5 8 1016.1 1015.4 0.0
25/12:30am 14.9 12.9 8.8 67 3.1 SSE 9 13 5 7 1016.2 - 0.0
25/12:00am 16.7 13.7 9.1 61 4.0 SE 15 20 8 11 1016.2 1015.5 0.0
 
Date/Time
EST
Temp
°C
App
Temp
°C
Dew
Point
Rel
Hum
%
Delta-T
°C
Wind Press
QNH
hPa
Press
MSL
hPa
Rain
since 9 am
mm
Dir
 
Spd
km/h
Gust
km/h
Spd
kts
Gust
kts
24/11:30pm 17.6 17.8 10.7 64 3.7 CALM 0 0 0 0 1016.3 - 0.0
24/11:00pm 16.9 15.7 11.6 71 2.9 S 9 11 5 6 1016.4 1015.7 0.0
24/10:30pm 17.0 17.2 11.7 71 2.9 S 2 6 1 3 1016.5 - 0.0
24/10:00pm 16.7 15.8 11.2 70 3.0 SSE 7 9 4 5 1016.7 1016.0 0.0
24/09:30pm 17.2 16.1 10.6 65 3.6 NE 7 11 4 6 1016.7 - 0.0
24/09:00pm 16.5 15.1 11.0 70 3.0 E 9 13 5 7 1016.3 1015.6 0.0
24/08:30pm 17.7 16.7 10.3 62 4.0 W 6 9 3 5 1016.1 - 0.0
24/08:00pm 17.1 15.5 10.2 64 3.7 SSW 9 11 5 6 1015.9 1015.2 0.0
24/07:30pm 18.0 16.5 10.4 61 4.1 S 9 13 5 7 1015.5 - 0.0
24/07:00pm 18.3 16.5 10.7 61 4.1 SE 11 15 6 8 1015.1 1014.4 0.0
24/06:30pm 19.3 19.5 10.6 57 4.8 CALM 0 0 0 0 1014.6 - 0.0
24/06:00pm 20.4 20.1 10.2 52 5.6 NNW 2 7 1 4 1014.0 1013.3 0.0
24/05:30pm 22.5 20.6 9.0 42 7.3 N 9 13 5 7 1013.8 - 0.0
24/05:00pm 24.3 21.7 9.5 39 8.2 N 13 15 7 8 1013.6 1012.9 0.0
24/04:30pm 25.2 22.3 9.5 37 8.7 N 15 19 8 10 1013.4 - 0.0
24/04:00pm 27.7 24.5 8.6 30 10.6 N 15 22 8 12 1013.2 1012.5 0.0
24/03:30pm 27.7 25.0 9.0 31 10.4 NNW 13 20 7 11 1013.5 - 0.0
24/03:00pm 28.6 25.7 9.8 31 10.6 NNW 15 22 8 12 1013.5 1012.8 0.0
24/02:30pm 28.1 23.9 8.4 29 10.9 NW 20 30 11 16 1013.6 - 0.0
24/02:00pm 28.9 24.8 8.6 28 11.3 NW 20 24 11 13 1013.8 1013.1 0.0
24/01:30pm 28.5 24.8 10.2 32 10.4 NNW 20 32 11 17 1014.1 - 0.0
24/01:00pm 28.3 25.5 10.0 32 10.4 WNW 15 22 8 12 1014.7 1013.9 0.0
24/12:30pm 27.9 25.8 11.0 35 9.7 WNW 13 20 7 11 1015.1 - 0.0
24/12:00pm 26.7 24.4 10.4 36 9.2 NW 13 20 7 11 1015.7 1015.0 0.0
24/11:30am 26.0 23.3 10.2 37 8.9 NW 15 24 8 13 1016.2 - 0.0
24/11:00am 25.2 23.4 11.0 41 8.1 NW 11 15 6 8 1016.8 1016.1 0.0
24/10:30am 23.9 23.2 10.2 42 7.6 NNW 4 9 2 5 1017.3 - 0.0
24/10:00am 22.9 21.9 10.3 45 7.0 ESE 6 9 3 5 1017.6 1016.9 0.0
24/09:30am 21.1 19.9 11.7 55 5.3 SE 9 11 5 6 1017.8 - 0.0
24/09:00am 19.4 18.1 11.4 60 4.4 ESE 9 11 5 6 1017.8 1017.1 0.0
24/08:30am 17.7 16.2 10.6 63 3.9 ESE 9 13 5 7 1017.7 - 0.0
24/08:00am 16.1 14.5 10.2 68 3.1 SE 9 13 5 7 1017.4 1016.7 0.0
24/07:30am 12.8 11.6 10.2 84 1.4 S 7 9 4 5 1017.0 - 0.0
24/07:00am 10.1 8.4 7.7 85 1.2 SSE 6 11 3 6 1016.8 1016.1 0.0
24/06:30am 8.6 6.6 6.4 86 1.0 SE 6 9 3 5 1016.3 - 0.0
24/06:00am 9.0 7.5 7.0 87 0.9 SE 4 7 2 4 1016.1 1015.4 0.0
24/05:30am 9.5 7.6 7.6 88 0.9 SSE 7 7 4 4 1015.9 - 0.0
24/05:00am 8.8 6.9 6.9 88 0.9 E 6 7 3 4 1015.8 1015.1 0.0
24/04:30am 9.1 7.2 6.9 86 1.0 ESE 6 7 3 4 1015.7 - 0.0
24/04:00am 9.7 9.2 8.0 89 0.8 CALM 0 0 0 0 1015.5 1014.8 0.0
24/03:30am 10.0 9.6 8.1 88 0.9 CALM 0 0 0 0 1015.4 - 0.0
24/03:00am 10.2 8.3 7.6 84 1.3 S 7 9 4 5 1015.3 1014.6 0.0
24/02:30am 10.2 8.5 7.6 84 1.3 SSE 6 6 3 3 1015.4 - 0.0
24/02:00am 10.6 9.5 7.1 79 1.7 S 2 7 1 4 1015.5 1014.8 0.0
24/01:30am 11.1 9.9 8.0 81 1.5 S 4 7 2 4 1015.6 - 0.0
24/01:00am 11.0 9.5 8.6 85 1.2 S 6 9 3 5 1015.9 1015.2 0.0
24/12:30am 11.0 10.3 8.6 85 1.2 W 2 6 1 3 1016.2 - 0.0
24/12:00am 11.7 10.3 8.9 83 1.4 NNE 6 9 3 5 1016.1 1015.4 0.0
 
Date/Time
EST
Temp
°C
App
Temp
°C
Dew
Point
Rel
Hum
%
Delta-T
°C
Wind Press
QNH
hPa
Press
MSL
hPa
Rain
since 9 am
mm
Dir
 
Spd
km/h
Gust
km/h
Spd
kts
Gust
kts
23/11:30pm 12.0 10.8 8.1 77 1.9 SSE 4 7 2 4 1016.1 - 0.0
23/11:00pm 13.9 12.4 9.3 74 2.4 SE 7 9 4 5 1016.1 1015.4 0.0
23/10:30pm 11.6 9.6 8.8 83 1.4 S 9 15 5 8 1016.3 - 0.0
23/10:00pm 13.7 12.3 9.4 75 2.2 ENE 7 9 4 5 1016.3 1015.6 0.0
23/09:30pm 12.3 9.9 8.8 79 1.8 S 11 13 6 7 1016.2 - 0.0
23/09:00pm 13.5 13.5 9.7 78 2.0 CALM 0 0 0 0 1016.2 1015.5 0.0
23/08:30pm 15.2 14.0 10.2 72 2.7 SSW 7 9 4 5 1016.2 - 0.0
23/08:00pm 15.3 13.3 10.1 71 2.8 S 11 13 6 7 1015.9 1015.2 0.0
23/07:30pm 16.0 14.4 10.3 69 3.0 S 9 11 5 6 1015.7 - 0.0
23/07:00pm 16.9 17.0 10.1 64 3.6 CALM 0 7 0 4 1015.6 1014.9 0.0
23/06:30pm 19.2 19.2 9.9 55 5.0 CALM 0 0 0 0 1015.6 - 0.0
23/06:00pm 19.6 18.3 9.2 51 5.6 N 6 7 3 4 1015.3 1014.6 0.0
23/05:30pm 23.6 21.6 8.5 38 8.1 N 9 11 5 6 1015.1 - 0.0
23/05:00pm 24.9 23.4 8.4 35 8.9 NNW 6 9 3 5 1015.0 1014.3 0.0
23/04:30pm 24.8 22.0 8.7 36 8.8 NNW 13 19 7 10 1014.8 - 0.0
23/04:00pm 27.0 22.8 8.4 31 10.2 NNW 20 28 11 15 1014.7 1013.9 0.0
23/03:30pm 27.5 23.5 8.4 30 10.5 NNW 19 28 10 15 1014.9 - 0.0
23/03:00pm 27.7 24.8 9.5 32 10.2 NW 15 20 8 11 1014.9 1014.2 0.0
23/02:30pm 27.4 23.2 8.3 30 10.5 NW 20 35 11 19 1015.0 - 0.0
23/02:00pm 26.6 23.3 9.5 34 9.5 NW 17 28 9 15 1015.2 1014.5 0.0
23/01:30pm 27.9 23.6 9.2 31 10.4 NW 22 37 12 20 1015.3 - 0.0
23/01:00pm 27.5 22.7 8.9 31 10.3 NW 24 35 13 19 1015.6 1014.9 0.0
23/12:30pm 27.0 21.7 8.4 31 10.2 NNW 26 37 14 20 1016.1 - 0.0
23/12:00pm 26.9 21.8 9.3 33 9.8 NW 26 39 14 21 1016.7 1016.0 0.0
23/11:30am 26.5 21.2 8.5 32 9.9 NW 26 43 14 23 1017.0 - 0.0
23/11:00am 26.1 21.6 9.9 36 9.1 NNW 24 30 13 16 1017.5 1016.8 0.0
23/10:30am 24.8 21.3 10.3 40 8.1 NNW 19 24 10 13 1018.0 - 0.0
23/10:00am 23.5 23.0 12.8 51 6.2 WNW 7 15 4 8 1018.4 1017.7 0.0
23/09:30am 22.1 21.9 10.6 48 6.4 WNW 2 9 1 5 1018.7 - 0.0
23/09:00am 20.7 20.9 10.5 52 5.6 CALM 0 0 0 0 1018.8 1018.1 0.0
23/08:30am 18.5 18.1 11.1 62 4.1 S 4 7 2 4 1018.8 - 0.0
23/08:00am 16.5 15.5 10.4 67 3.3 SSE 6 9 3 5 1018.7 1018.0 0.0
23/07:30am 13.9 12.7 9.7 76 2.2 S 6 7 3 4 1018.7 - 0.0
23/07:00am 12.3 10.8 8.6 78 1.9 SSE 6 11 3 6 1018.5 1017.8 0.0
23/06:30am 10.8 9.1 8.2 84 1.3 E 7 9 4 5 1018.4 - 0.0
23/06:00am 12.0 11.4 9.0 82 1.5 ESE 2 6 1 3 1018.3 1017.6 0.0
23/05:30am 11.8 10.0 9.4 85 1.2 S 9 11 5 6 1018.1 - 0.0
23/05:00am 10.4 8.4 8.7 89 0.8 SSW 9 11 5 6 1017.9 1017.2 0.0
23/04:30am 10.6 10.3 8.5 87 1.0 CALM 0 0 0 0 1017.7 - 0.0
23/04:00am 10.8 10.6 8.9 88 1.0 CALM 0 0 0 0 1017.6 1016.9 0.0
23/03:30am 10.9 10.6 8.8 87 1.1 CALM 0 2 0 1 1017.5 - 0.0
23/03:00am 10.7 10.3 8.3 85 1.2 CALM 0 0 0 0 1017.4 1016.7 0.0
23/02:30am 11.2 10.6 8.8 85 1.2 W 2 7 1 4 1017.5 - 0.0
23/02:00am 11.7 11.0 8.7 82 1.5 NNW 2 9 1 5 1017.7 1017.0 0.0
23/01:30am 13.0 12.1 9.3 78 1.9 W 4 7 2 4 1017.7 - 0.0
23/01:00am 13.8 12.6 9.5 75 2.2 W 6 13 3 7 1017.7 1017.0 0.0
23/12:30am 15.4 15.2 9.1 66 3.3 CALM 0 0 0 0 1017.7 - 0.0
23/12:00am 15.9 14.1 9.6 66 3.3 E 9 11 5 6 1017.6 1016.9 0.0
 
Date/Time
EST
Temp
°C
App
Temp
°C
Dew
Point
Rel
Hum
%
Delta-T
°C
Wind Press
QNH
hPa
Press
MSL
hPa
Rain
since 9 am
mm
Dir
 
Spd
km/h
Gust
km/h
Spd
kts
Gust
kts
22/11:30pm 15.6 14.0 10.2 70 2.9 ESE 9 11 5 6 1017.5 - 0.0
22/11:00pm 16.3 14.9 11.0 71 2.9 ENE 9 11 5 6 1017.7 1017.0 0.0
22/10:30pm 17.1 15.7 10.9 67 3.4 E 9 13 5 7 1017.5 - 0.0
22/10:00pm 19.1 16.6 8.4 50 5.6 S 11 15 6 8 1017.4 1016.7 0.0
22/09:30pm 19.1 16.4 9.0 52 5.4 S 13 15 7 8 1017.4 - 0.0
22/09:00pm 17.1 16.7 13.0 77 2.3 SW 7 13 4 7 1017.4 1016.7 0.0
22/08:30pm 16.5 16.0 12.5 77 2.2 SSW 7 9 4 5 1017.1 - 0.0
22/08:00pm 16.3 15.4 12.5 78 2.1 S 9 9 5 5 1017.1 1016.4 0.0
22/07:30pm 17.2 16.9 11.5 69 3.1 ESE 4 6 2 3 1016.9 - 0.0
22/07:00pm 17.4 17.1 11.4 68 3.3 ESE 4 6 2 3 1016.8 1016.1 0.0
22/06:30pm 19.5 19.1 12.3 63 4.1 W 6 6 3 3 1016.6 - 0.0
22/06:00pm 22.2 21.3 11.3 50 6.1 NNW 7 11 4 6 1016.4 1015.7 0.0
22/05:30pm 23.3 22.4 11.4 47 6.7 NNW 7 9 4 5 1016.3 - 0.0
22/05:00pm 25.2 23.9 11.4 42 7.9 NW 9 13 5 7 1016.2 1015.5 0.0
22/04:30pm 25.3 23.1 10.7 40 8.3 NNW 13 19 7 10 1016.3 - 0.0
22/04:00pm 26.3 22.6 9.6 35 9.3 NNW 19 26 10 14 1016.2 1015.5 0.0
22/03:30pm 26.6 22.6 10.3 36 9.2 NNW 22 28 12 15 1016.4 - 0.0

Other Formats:

Comma delimited format used in spreadsheet applications
http://www.bom.gov.au/fwo/IDN60801/IDN60801.95740.axf

JavaScript Object Notation format (JSON) in row-major order
http://www.bom.gov.au/fwo/IDN60801/IDN60801.95740.json